sensor_id;sensor_type;location;lat;lon;timestamp;P1;durP1;ratioP1;P2;durP2;ratioP2
15748;SDS011;7976;52.526;13.326;2023-04-20T00:00:52;16.02;;;6.55;;
15748;SDS011;7976;52.526;13.326;2023-04-20T00:03:20;15.77;;;6.97;;
15748;SDS011;7976;52.526;13.326;2023-04-20T00:05:47;17.88;;;7.20;;
15748;SDS011;7976;52.526;13.326;2023-04-20T00:08:14;15.48;;;6.80;;
15748;SDS011;7976;52.526;13.326;2023-04-20T00:10:42;15.13;;;6.65;;
15748;SDS011;7976;52.526;13.326;2023-04-20T00:13:09;13.43;;;6.35;;
15748;SDS011;7976;52.526;13.326;2023-04-20T00:15:36;12.95;;;6.13;;
15748;SDS011;7976;52.526;13.326;2023-04-20T00:20:33;12.75;;;5.70;;
15748;SDS011;7976;52.526;13.326;2023-04-20T00:23:01;15.50;;;6.47;;
15748;SDS011;7976;52.526;13.326;2023-04-20T00:25:28;12.88;;;5.57;;
15748;SDS011;7976;52.526;13.326;2023-04-20T00:27:56;12.43;;;6.28;;
15748;SDS011;7976;52.526;13.326;2023-04-20T00:30:23;13.63;;;5.50;;
15748;SDS011;7976;52.526;13.326;2023-04-20T00:32:50;13.32;;;5.95;;
15748;SDS011;7976;52.526;13.326;2023-04-20T00:35:17;13.85;;;6.03;;
15748;SDS011;7976;52.526;13.326;2023-04-20T00:37:45;13.25;;;5.20;;
15748;SDS011;7976;52.526;13.326;2023-04-20T00:40:12;14.45;;;5.38;;
15748;SDS011;7976;52.526;13.326;2023-04-20T00:42:38;13.32;;;5.03;;
15748;SDS011;7976;52.526;13.326;2023-04-20T00:45:06;11.95;;;4.97;;
15748;SDS011;7976;52.526;13.326;2023-04-20T00:47:35;11.35;;;5.30;;
15748;SDS011;7976;52.526;13.326;2023-04-20T00:50:02;11.73;;;5.40;;
15748;SDS011;7976;52.526;13.326;2023-04-20T00:52:30;12.40;;;5.20;;
15748;SDS011;7976;52.526;13.326;2023-04-20T00:54:59;13.10;;;5.32;;
15748;SDS011;7976;52.526;13.326;2023-04-20T00:57:28;12.50;;;5.22;;
15748;SDS011;7976;52.526;13.326;2023-04-20T00:59:58;11.77;;;4.95;;
15748;SDS011;7976;52.526;13.326;2023-04-20T01:02:26;12.07;;;5.03;;
15748;SDS011;7976;52.526;13.326;2023-04-20T01:04:53;12.07;;;5.53;;
15748;SDS011;7976;52.526;13.326;2023-04-20T01:07:20;13.32;;;5.30;;
15748;SDS011;7976;52.526;13.326;2023-04-20T01:09:47;13.27;;;5.20;;
15748;SDS011;7976;52.526;13.326;2023-04-20T01:12:16;13.13;;;5.40;;
15748;SDS011;7976;52.526;13.326;2023-04-20T01:14:42;13.88;;;5.47;;
15748;SDS011;7976;52.526;13.326;2023-04-20T01:17:10;13.07;;;5.13;;
15748;SDS011;7976;52.526;13.326;2023-04-20T01:19:37;13.80;;;5.28;;
15748;SDS011;7976;52.526;13.326;2023-04-20T01:22:05;12.20;;;5.25;;
15748;SDS011;7976;52.526;13.326;2023-04-20T01:24:33;12.65;;;5.78;;
15748;SDS011;7976;52.526;13.326;2023-04-20T01:27:00;12.60;;;5.53;;
15748;SDS011;7976;52.526;13.326;2023-04-20T01:29:26;13.10;;;5.40;;
15748;SDS011;7976;52.526;13.326;2023-04-20T01:31:54;12.57;;;5.35;;
15748;SDS011;7976;52.526;13.326;2023-04-20T01:34:20;11.98;;;5.65;;
15748;SDS011;7976;52.526;13.326;2023-04-20T01:36:47;11.73;;;5.53;;
15748;SDS011;7976;52.526;13.326;2023-04-20T01:39:15;12.52;;;5.90;;
15748;SDS011;7976;52.526;13.326;2023-04-20T01:41:44;13.57;;;5.90;;
15748;SDS011;7976;52.526;13.326;2023-04-20T01:44:11;13.30;;;5.40;;
15748;SDS011;7976;52.526;13.326;2023-04-20T01:46:38;12.45;;;5.80;;
15748;SDS011;7976;52.526;13.326;2023-04-20T01:49:06;13.25;;;5.95;;
15748;SDS011;7976;52.526;13.326;2023-04-20T01:51:35;12.70;;;6.13;;
15748;SDS011;7976;52.526;13.326;2023-04-20T01:54:02;14.35;;;6.03;;
15748;SDS011;7976;52.526;13.326;2023-04-20T01:56:29;14.23;;;5.90;;
15748;SDS011;7976;52.526;13.326;2023-04-20T01:58:58;14.90;;;6.55;;
15748;SDS011;7976;52.526;13.326;2023-04-20T02:01:25;15.20;;;6.53;;
15748;SDS011;7976;52.526;13.326;2023-04-20T02:03:52;13.95;;;6.45;;
15748;SDS011;7976;52.526;13.326;2023-04-20T02:06:19;14.68;;;6.70;;
15748;SDS011;7976;52.526;13.326;2023-04-20T02:08:46;14.23;;;6.63;;
15748;SDS011;7976;52.526;13.326;2023-04-20T02:11:13;13.52;;;6.32;;
15748;SDS011;7976;52.526;13.326;2023-04-20T02:13:40;13.50;;;6.18;;
15748;SDS011;7976;52.526;13.326;2023-04-20T02:16:08;14.60;;;6.70;;
15748;SDS011;7976;52.526;13.326;2023-04-20T02:18:35;13.55;;;6.18;;
15748;SDS011;7976;52.526;13.326;2023-04-20T02:21:03;15.77;;;7.18;;
15748;SDS011;7976;52.526;13.326;2023-04-20T02:23:31;15.95;;;6.28;;
15748;SDS011;7976;52.526;13.326;2023-04-20T02:25:58;13.02;;;6.28;;
15748;SDS011;7976;52.526;13.326;2023-04-20T02:28:25;13.45;;;6.68;;
15748;SDS011;7976;52.526;13.326;2023-04-20T02:30:51;13.23;;;6.00;;
15748;SDS011;7976;52.526;13.326;2023-04-20T02:33:20;14.63;;;7.07;;
15748;SDS011;7976;52.526;13.326;2023-04-20T02:35:46;14.90;;;6.60;;
15748;SDS011;7976;52.526;13.326;2023-04-20T02:38:13;14.00;;;6.93;;
15748;SDS011;7976;52.526;13.326;2023-04-20T02:40:40;15.73;;;6.28;;
15748;SDS011;7976;52.526;13.326;2023-04-20T02:43:08;16.67;;;7.50;;
15748;SDS011;7976;52.526;13.326;2023-04-20T02:45:36;13.55;;;6.43;;
15748;SDS011;7976;52.526;13.326;2023-04-20T02:48:03;14.93;;;6.97;;
15748;SDS011;7976;52.526;13.326;2023-04-20T02:50:32;15.40;;;7.57;;
15748;SDS011;7976;52.526;13.326;2023-04-20T02:53:29;15.38;;;7.07;;
15748;SDS011;7976;52.526;13.326;2023-04-20T02:56:14;16.75;;;7.60;;
15748;SDS011;7976;52.526;13.326;2023-04-20T02:58:44;16.27;;;7.20;;
15748;SDS011;7976;52.526;13.326;2023-04-20T03:01:32;15.85;;;7.10;;
15748;SDS011;7976;52.526;13.326;2023-04-20T03:04:07;15.65;;;7.25;;
15748;SDS011;7976;52.526;13.326;2023-04-20T03:06:39;16.90;;;7.97;;
15748;SDS011;7976;52.526;13.326;2023-04-20T03:09:09;15.85;;;7.85;;
15748;SDS011;7976;52.526;13.326;2023-04-20T03:11:56;16.92;;;8.13;;
15748;SDS011;7976;52.526;13.326;2023-04-20T03:14:41;17.73;;;8.15;;
15748;SDS011;7976;52.526;13.326;2023-04-20T03:17:08;19.13;;;8.00;;
15748;SDS011;7976;52.526;13.326;2023-04-20T03:19:35;18.30;;;8.50;;
15748;SDS011;7976;52.526;13.326;2023-04-20T03:22:04;19.92;;;9.18;;
15748;SDS011;7976;52.526;13.326;2023-04-20T03:24:32;17.05;;;8.57;;
15748;SDS011;7976;52.526;13.326;2023-04-20T03:27:08;19.45;;;8.85;;
15748;SDS011;7976;52.526;13.326;2023-04-20T03:29:44;21.70;;;9.43;;
15748;SDS011;7976;52.526;13.326;2023-04-20T03:32:13;19.08;;;9.15;;
15748;SDS011;7976;52.526;13.326;2023-04-20T03:34:39;17.63;;;8.23;;
15748;SDS011;7976;52.526;13.326;2023-04-20T03:37:08;17.00;;;8.90;;
15748;SDS011;7976;52.526;13.326;2023-04-20T03:39:35;16.88;;;8.98;;
15748;SDS011;7976;52.526;13.326;2023-04-20T03:42:02;18.13;;;8.68;;
15748;SDS011;7976;52.526;13.326;2023-04-20T03:44:30;20.08;;;9.73;;
15748;SDS011;7976;52.526;13.326;2023-04-20T03:46:57;18.42;;;8.45;;
15748;SDS011;7976;52.526;13.326;2023-04-20T03:49:24;20.70;;;9.73;;
15748;SDS011;7976;52.526;13.326;2023-04-20T03:51:51;20.90;;;9.50;;
15748;SDS011;7976;52.526;13.326;2023-04-20T03:54:19;24.15;;;10.55;;
15748;SDS011;7976;52.526;13.326;2023-04-20T03:56:46;23.33;;;11.27;;
15748;SDS011;7976;52.526;13.326;2023-04-20T03:59:14;23.30;;;10.75;;
15748;SDS011;7976;52.526;13.326;2023-04-20T04:01:44;25.70;;;10.68;;
15748;SDS011;7976;52.526;13.326;2023-04-20T04:04:11;25.77;;;11.38;;
15748;SDS011;7976;52.526;13.326;2023-04-20T04:06:38;25.70;;;11.77;;
15748;SDS011;7976;52.526;13.326;2023-04-20T04:09:06;22.20;;;10.48;;
15748;SDS011;7976;52.526;13.326;2023-04-20T04:11:35;26.15;;;11.63;;
15748;SDS011;7976;52.526;13.326;2023-04-20T04:14:02;23.55;;;11.60;;
15748;SDS011;7976;52.526;13.326;2023-04-20T04:16:30;27.35;;;11.50;;
15748;SDS011;7976;52.526;13.326;2023-04-20T04:18:57;26.05;;;11.88;;
15748;SDS011;7976;52.526;13.326;2023-04-20T04:21:24;27.73;;;11.88;;
15748;SDS011;7976;52.526;13.326;2023-04-20T04:23:57;22.55;;;10.88;;
15748;SDS011;7976;52.526;13.326;2023-04-20T04:26:44;25.10;;;11.07;;
15748;SDS011;7976;52.526;13.326;2023-04-20T04:29:13;23.88;;;10.68;;
15748;SDS011;7976;52.526;13.326;2023-04-20T04:31:39;24.20;;;11.73;;
15748;SDS011;7976;52.526;13.326;2023-04-20T04:34:12;22.23;;;10.65;;
15748;SDS011;7976;52.526;13.326;2023-04-20T04:36:46;27.15;;;11.80;;
15748;SDS011;7976;52.526;13.326;2023-04-20T04:39:17;24.38;;;11.55;;
15748;SDS011;7976;52.526;13.326;2023-04-20T04:41:53;29.42;;;11.55;;
15748;SDS011;7976;52.526;13.326;2023-04-20T04:44:30;25.48;;;10.80;;
15748;SDS011;7976;52.526;13.326;2023-04-20T04:47:00;27.98;;;11.52;;
15748;SDS011;7976;52.526;13.326;2023-04-20T04:49:29;26.67;;;11.90;;
15748;SDS011;7976;52.526;13.326;2023-04-20T04:51:56;23.35;;;11.48;;
15748;SDS011;7976;52.526;13.326;2023-04-20T04:54:23;28.60;;;11.68;;
15748;SDS011;7976;52.526;13.326;2023-04-20T04:56:49;25.23;;;12.05;;
15748;SDS011;7976;52.526;13.326;2023-04-20T04:59:17;29.20;;;12.23;;
15748;SDS011;7976;52.526;13.326;2023-04-20T05:01:44;25.33;;;11.57;;
15748;SDS011;7976;52.526;13.326;2023-04-20T05:04:11;26.63;;;11.30;;
15748;SDS011;7976;52.526;13.326;2023-04-20T05:06:38;24.80;;;12.10;;
15748;SDS011;7976;52.526;13.326;2023-04-20T05:09:05;26.02;;;11.73;;
15748;SDS011;7976;52.526;13.326;2023-04-20T05:11:31;26.70;;;11.73;;
15748;SDS011;7976;52.526;13.326;2023-04-20T05:13:58;29.45;;;12.82;;
15748;SDS011;7976;52.526;13.326;2023-04-20T05:16:27;28.27;;;13.02;;
15748;SDS011;7976;52.526;13.326;2023-04-20T05:18:54;26.98;;;12.50;;
15748;SDS011;7976;52.526;13.326;2023-04-20T05:21:21;26.02;;;12.13;;
15748;SDS011;7976;52.526;13.326;2023-04-20T05:23:48;26.55;;;11.95;;
15748;SDS011;7976;52.526;13.326;2023-04-20T05:26:15;25.42;;;11.80;;
15748;SDS011;7976;52.526;13.326;2023-04-20T05:28:42;25.02;;;11.68;;
15748;SDS011;7976;52.526;13.326;2023-04-20T05:31:09;26.70;;;12.52;;
15748;SDS011;7976;52.526;13.326;2023-04-20T05:33:37;24.00;;;11.40;;
15748;SDS011;7976;52.526;13.326;2023-04-20T05:36:07;27.45;;;11.98;;
15748;SDS011;7976;52.526;13.326;2023-04-20T05:38:34;25.65;;;12.05;;
15748;SDS011;7976;52.526;13.326;2023-04-20T05:41:01;26.65;;;12.35;;
15748;SDS011;7976;52.526;13.326;2023-04-20T05:43:29;25.67;;;12.43;;
15748;SDS011;7976;52.526;13.326;2023-04-20T05:45:55;27.85;;;12.95;;
15748;SDS011;7976;52.526;13.326;2023-04-20T05:48:22;30.98;;;13.13;;
15748;SDS011;7976;52.526;13.326;2023-04-20T05:50:52;27.35;;;13.07;;
15748;SDS011;7976;52.526;13.326;2023-04-20T05:53:19;25.60;;;12.30;;
15748;SDS011;7976;52.526;13.326;2023-04-20T05:55:46;25.88;;;12.48;;
15748;SDS011;7976;52.526;13.326;2023-04-20T05:58:13;26.55;;;12.65;;
15748;SDS011;7976;52.526;13.326;2023-04-20T06:00:40;26.33;;;13.13;;
15748;SDS011;7976;52.526;13.326;2023-04-20T06:03:08;27.10;;;13.65;;
15748;SDS011;7976;52.526;13.326;2023-04-20T06:05:35;31.55;;;13.02;;
15748;SDS011;7976;52.526;13.326;2023-04-20T06:08:03;25.77;;;13.13;;
15748;SDS011;7976;52.526;13.326;2023-04-20T06:10:33;24.83;;;11.95;;
15748;SDS011;7976;52.526;13.326;2023-04-20T06:13:00;27.38;;;12.40;;
15748;SDS011;7976;52.526;13.326;2023-04-20T06:15:27;24.73;;;12.38;;
15748;SDS011;7976;52.526;13.326;2023-04-20T06:17:54;25.40;;;11.23;;
15748;SDS011;7976;52.526;13.326;2023-04-20T06:20:21;26.25;;;12.05;;
15748;SDS011;7976;52.526;13.326;2023-04-20T06:22:48;25.85;;;12.60;;
15748;SDS011;7976;52.526;13.326;2023-04-20T06:25:16;24.15;;;12.15;;
15748;SDS011;7976;52.526;13.326;2023-04-20T06:27:43;25.33;;;11.32;;
15748;SDS011;7976;52.526;13.326;2023-04-20T06:30:11;25.38;;;12.80;;
15748;SDS011;7976;52.526;13.326;2023-04-20T06:32:39;27.05;;;12.40;;
15748;SDS011;7976;52.526;13.326;2023-04-20T06:35:06;26.20;;;13.10;;
15748;SDS011;7976;52.526;13.326;2023-04-20T06:37:34;25.08;;;11.90;;
15748;SDS011;7976;52.526;13.326;2023-04-20T06:40:01;26.02;;;12.65;;
15748;SDS011;7976;52.526;13.326;2023-04-20T06:42:33;25.25;;;12.63;;
15748;SDS011;7976;52.526;13.326;2023-04-20T06:45:00;29.05;;;13.40;;
15748;SDS011;7976;52.526;13.326;2023-04-20T06:47:27;25.27;;;12.23;;
15748;SDS011;7976;52.526;13.326;2023-04-20T06:49:57;25.67;;;12.13;;
15748;SDS011;7976;52.526;13.326;2023-04-20T06:52:25;24.98;;;12.82;;
15748;SDS011;7976;52.526;13.326;2023-04-20T06:54:52;24.10;;;11.55;;
15748;SDS011;7976;52.526;13.326;2023-04-20T06:57:19;25.42;;;11.77;;
15748;SDS011;7976;52.526;13.326;2023-04-20T06:59:48;25.33;;;11.40;;
15748;SDS011;7976;52.526;13.326;2023-04-20T07:02:15;25.88;;;11.85;;
15748;SDS011;7976;52.526;13.326;2023-04-20T07:04:42;24.42;;;12.18;;
15748;SDS011;7976;52.526;13.326;2023-04-20T07:07:08;24.35;;;12.15;;
15748;SDS011;7976;52.526;13.326;2023-04-20T07:09:35;28.70;;;13.10;;
15748;SDS011;7976;52.526;13.326;2023-04-20T07:12:02;25.05;;;12.75;;
15748;SDS011;7976;52.526;13.326;2023-04-20T07:14:29;23.98;;;11.85;;
15748;SDS011;7976;52.526;13.326;2023-04-20T07:16:57;24.52;;;12.02;;
15748;SDS011;7976;52.526;13.326;2023-04-20T07:19:24;24.52;;;12.25;;
15748;SDS011;7976;52.526;13.326;2023-04-20T07:21:51;26.83;;;13.27;;
15748;SDS011;7976;52.526;13.326;2023-04-20T07:24:18;26.15;;;13.15;;
15748;SDS011;7976;52.526;13.326;2023-04-20T07:26:45;25.88;;;13.73;;
15748;SDS011;7976;52.526;13.326;2023-04-20T07:29:12;26.73;;;13.55;;
15748;SDS011;7976;52.526;13.326;2023-04-20T07:31:38;25.05;;;13.48;;
15748;SDS011;7976;52.526;13.326;2023-04-20T07:34:06;29.95;;;13.30;;
15748;SDS011;7976;52.526;13.326;2023-04-20T07:36:33;30.00;;;14.25;;
15748;SDS011;7976;52.526;13.326;2023-04-20T07:39:03;27.25;;;14.38;;
15748;SDS011;7976;52.526;13.326;2023-04-20T07:41:30;29.80;;;14.75;;
15748;SDS011;7976;52.526;13.326;2023-04-20T07:43:56;26.10;;;13.15;;
15748;SDS011;7976;52.526;13.326;2023-04-20T07:46:23;29.42;;;13.43;;
15748;SDS011;7976;52.526;13.326;2023-04-20T07:48:52;25.15;;;13.20;;
15748;SDS011;7976;52.526;13.326;2023-04-20T07:51:20;26.50;;;13.45;;
15748;SDS011;7976;52.526;13.326;2023-04-20T07:53:47;26.98;;;13.48;;
15748;SDS011;7976;52.526;13.326;2023-04-20T07:56:14;24.33;;;12.63;;
15748;SDS011;7976;52.526;13.326;2023-04-20T07:58:40;28.95;;;13.77;;
15748;SDS011;7976;52.526;13.326;2023-04-20T08:01:07;25.88;;;12.45;;
15748;SDS011;7976;52.526;13.326;2023-04-20T08:03:34;23.77;;;12.50;;
15748;SDS011;7976;52.526;13.326;2023-04-20T08:06:01;26.15;;;13.52;;
15748;SDS011;7976;52.526;13.326;2023-04-20T08:08:31;26.58;;;13.00;;
15748;SDS011;7976;52.526;13.326;2023-04-20T08:10:58;24.20;;;12.10;;
15748;SDS011;7976;52.526;13.326;2023-04-20T08:13:25;24.60;;;12.77;;
15748;SDS011;7976;52.526;13.326;2023-04-20T08:15:52;25.45;;;13.00;;
15748;SDS011;7976;52.526;13.326;2023-04-20T08:18:19;23.92;;;12.13;;
15748;SDS011;7976;52.526;13.326;2023-04-20T08:20:46;24.30;;;12.15;;
15748;SDS011;7976;52.526;13.326;2023-04-20T08:23:13;25.02;;;12.65;;
15748;SDS011;7976;52.526;13.326;2023-04-20T08:25:41;22.58;;;11.73;;
15748;SDS011;7976;52.526;13.326;2023-04-20T08:28:08;21.20;;;11.07;;
15748;SDS011;7976;52.526;13.326;2023-04-20T08:30:35;23.65;;;11.90;;
15748;SDS011;7976;52.526;13.326;2023-04-20T08:33:05;21.77;;;11.13;;
15748;SDS011;7976;52.526;13.326;2023-04-20T08:35:31;18.15;;;10.02;;
15748;SDS011;7976;52.526;13.326;2023-04-20T08:37:58;24.50;;;11.73;;
15748;SDS011;7976;52.526;13.326;2023-04-20T08:40:25;21.20;;;10.02;;
15748;SDS011;7976;52.526;13.326;2023-04-20T08:42:53;20.15;;;10.50;;
15748;SDS011;7976;52.526;13.326;2023-04-20T08:45:21;23.33;;;10.32;;
15748;SDS011;7976;52.526;13.326;2023-04-20T08:47:49;22.17;;;10.80;;
15748;SDS011;7976;52.526;13.326;2023-04-20T08:50:17;21.00;;;10.65;;
15748;SDS011;7976;52.526;13.326;2023-04-20T08:52:45;21.35;;;10.68;;
15748;SDS011;7976;52.526;13.326;2023-04-20T08:55:14;20.67;;;11.15;;
15748;SDS011;7976;52.526;13.326;2023-04-20T08:57:41;22.60;;;11.50;;
15748;SDS011;7976;52.526;13.326;2023-04-20T09:00:10;23.13;;;11.88;;
15748;SDS011;7976;52.526;13.326;2023-04-20T09:02:47;23.48;;;11.05;;
15748;SDS011;7976;52.526;13.326;2023-04-20T09:05:15;23.05;;;11.63;;
15748;SDS011;7976;52.526;13.326;2023-04-20T09:07:51;25.00;;;12.18;;
15748;SDS011;7976;52.526;13.326;2023-04-20T09:10:18;26.05;;;11.57;;
15748;SDS011;7976;52.526;13.326;2023-04-20T09:12:45;25.08;;;11.82;;
15748;SDS011;7976;52.526;13.326;2023-04-20T09:15:23;24.80;;;12.25;;
15748;SDS011;7976;52.526;13.326;2023-04-20T09:17:51;28.95;;;12.55;;
15748;SDS011;7976;52.526;13.326;2023-04-20T09:20:28;24.25;;;12.02;;
15748;SDS011;7976;52.526;13.326;2023-04-20T09:22:56;27.23;;;13.10;;
15748;SDS011;7976;52.526;13.326;2023-04-20T09:25:35;25.23;;;12.30;;
15748;SDS011;7976;52.526;13.326;2023-04-20T09:28:04;21.55;;;10.68;;
15748;SDS011;7976;52.526;13.326;2023-04-20T09:30:37;20.52;;;11.27;;
15748;SDS011;7976;52.526;13.326;2023-04-20T09:33:06;25.08;;;12.57;;
15748;SDS011;7976;52.526;13.326;2023-04-20T09:35:36;25.00;;;12.38;;
15748;SDS011;7976;52.526;13.326;2023-04-20T09:38:04;24.42;;;11.80;;
15748;SDS011;7976;52.526;13.326;2023-04-20T09:40:32;26.55;;;13.93;;
15748;SDS011;7976;52.526;13.326;2023-04-20T09:43:01;25.92;;;13.13;;
15748;SDS011;7976;52.526;13.326;2023-04-20T09:45:44;28.13;;;13.68;;
15748;SDS011;7976;52.526;13.326;2023-04-20T09:48:11;24.98;;;12.30;;
15748;SDS011;7976;52.526;13.326;2023-04-20T09:50:42;25.42;;;12.43;;
15748;SDS011;7976;52.526;13.326;2023-04-20T09:53:09;25.70;;;13.55;;
15748;SDS011;7976;52.526;13.326;2023-04-20T09:55:37;25.73;;;12.98;;
15748;SDS011;7976;52.526;13.326;2023-04-20T09:58:04;25.98;;;13.05;;
15748;SDS011;7976;52.526;13.326;2023-04-20T10:00:31;24.95;;;12.40;;
15748;SDS011;7976;52.526;13.326;2023-04-20T10:02:59;24.55;;;12.73;;
15748;SDS011;7976;52.526;13.326;2023-04-20T10:05:32;23.70;;;12.35;;
15748;SDS011;7976;52.526;13.326;2023-04-20T10:08:01;26.73;;;13.52;;
15748;SDS011;7976;52.526;13.326;2023-04-20T10:10:29;29.13;;;14.07;;
15748;SDS011;7976;52.526;13.326;2023-04-20T10:12:57;31.77;;;15.45;;
15748;SDS011;7976;52.526;13.326;2023-04-20T10:15:35;24.13;;;12.23;;
15748;SDS011;7976;52.526;13.326;2023-04-20T10:18:14;36.17;;;19.20;;
15748;SDS011;7976;52.526;13.326;2023-04-20T10:20:42;41.38;;;19.77;;
15748;SDS011;7976;52.526;13.326;2023-04-20T10:23:10;30.27;;;16.08;;
15748;SDS011;7976;52.526;13.326;2023-04-20T10:25:40;23.63;;;13.57;;
15748;SDS011;7976;52.526;13.326;2023-04-20T10:28:09;22.80;;;12.68;;
15748;SDS011;7976;52.526;13.326;2023-04-20T10:30:36;22.80;;;12.48;;
15748;SDS011;7976;52.526;13.326;2023-04-20T10:33:16;21.88;;;11.60;;
15748;SDS011;7976;52.526;13.326;2023-04-20T10:35:45;23.10;;;12.00;;
15748;SDS011;7976;52.526;13.326;2023-04-20T10:38:14;24.50;;;11.93;;
15748;SDS011;7976;52.526;13.326;2023-04-20T10:40:53;19.75;;;10.27;;
15748;SDS011;7976;52.526;13.326;2023-04-20T10:43:21;20.08;;;11.13;;
15748;SDS011;7976;52.526;13.326;2023-04-20T10:45:48;21.42;;;12.10;;
15748;SDS011;7976;52.526;13.326;2023-04-20T10:48:17;17.92;;;9.68;;
15748;SDS011;7976;52.526;13.326;2023-04-20T10:50:44;22.23;;;10.73;;
15748;SDS011;7976;52.526;13.326;2023-04-20T10:53:17;18.25;;;9.85;;
15748;SDS011;7976;52.526;13.326;2023-04-20T10:55:46;18.58;;;10.45;;
15748;SDS011;7976;52.526;13.326;2023-04-20T10:58:23;17.92;;;9.38;;
15748;SDS011;7976;52.526;13.326;2023-04-20T11:00:56;21.15;;;10.38;;
15748;SDS011;7976;52.526;13.326;2023-04-20T11:03:27;18.33;;;10.00;;
15748;SDS011;7976;52.526;13.326;2023-04-20T11:05:58;21.30;;;10.73;;
15748;SDS011;7976;52.526;13.326;2023-04-20T11:08:37;20.85;;;9.93;;
15748;SDS011;7976;52.526;13.326;2023-04-20T11:11:16;19.95;;;10.13;;
15748;SDS011;7976;52.526;13.326;2023-04-20T11:13:45;19.25;;;10.55;;
15748;SDS011;7976;52.526;13.326;2023-04-20T11:16:13;20.23;;;10.82;;
15748;SDS011;7976;52.526;13.326;2023-04-20T11:18:51;26.15;;;11.88;;
15748;SDS011;7976;52.526;13.326;2023-04-20T11:21:21;22.30;;;10.82;;
15748;SDS011;7976;52.526;13.326;2023-04-20T11:23:49;18.95;;;10.68;;
15748;SDS011;7976;52.526;13.326;2023-04-20T11:26:15;20.48;;;11.07;;
15748;SDS011;7976;52.526;13.326;2023-04-20T11:28:49;24.17;;;11.55;;
15748;SDS011;7976;52.526;13.326;2023-04-20T11:31:17;24.13;;;11.15;;
15748;SDS011;7976;52.526;13.326;2023-04-20T11:33:45;22.55;;;10.70;;
15748;SDS011;7976;52.526;13.326;2023-04-20T11:36:19;22.38;;;11.77;;
15748;SDS011;7976;52.526;13.326;2023-04-20T11:38:48;22.15;;;11.95;;
15748;SDS011;7976;52.526;13.326;2023-04-20T11:41:19;28.75;;;16.73;;
15748;SDS011;7976;52.526;13.326;2023-04-20T11:43:46;40.58;;;22.70;;
15748;SDS011;7976;52.526;13.326;2023-04-20T11:46:14;27.48;;;14.52;;
15748;SDS011;7976;52.526;13.326;2023-04-20T11:48:43;22.95;;;12.15;;
15748;SDS011;7976;52.526;13.326;2023-04-20T11:51:10;21.92;;;11.13;;
15748;SDS011;7976;52.526;13.326;2023-04-20T11:53:39;19.33;;;10.63;;
15748;SDS011;7976;52.526;13.326;2023-04-20T11:56:06;20.88;;;11.43;;
15748;SDS011;7976;52.526;13.326;2023-04-20T11:58:33;23.08;;;11.82;;
15748;SDS011;7976;52.526;13.326;2023-04-20T12:01:01;21.63;;;11.48;;
15748;SDS011;7976;52.526;13.326;2023-04-20T12:03:29;21.90;;;12.02;;
15748;SDS011;7976;52.526;13.326;2023-04-20T12:05:56;20.20;;;11.43;;
15748;SDS011;7976;52.526;13.326;2023-04-20T12:08:23;21.48;;;11.63;;
15748;SDS011;7976;52.526;13.326;2023-04-20T12:10:51;21.25;;;11.02;;
15748;SDS011;7976;52.526;13.326;2023-04-20T12:13:19;21.50;;;11.68;;
15748;SDS011;7976;52.526;13.326;2023-04-20T12:15:45;20.17;;;10.80;;
15748;SDS011;7976;52.526;13.326;2023-04-20T12:18:12;24.13;;;11.90;;
15748;SDS011;7976;52.526;13.326;2023-04-20T12:20:39;20.17;;;11.43;;
15748;SDS011;7976;52.526;13.326;2023-04-20T12:23:06;24.55;;;12.27;;
15748;SDS011;7976;52.526;13.326;2023-04-20T12:25:33;20.08;;;10.07;;
15748;SDS011;7976;52.526;13.326;2023-04-20T12:28:01;20.35;;;10.85;;
15748;SDS011;7976;52.526;13.326;2023-04-20T12:30:30;25.33;;;12.70;;
15748;SDS011;7976;52.526;13.326;2023-04-20T12:32:59;27.65;;;13.98;;
15748;SDS011;7976;52.526;13.326;2023-04-20T12:35:26;23.08;;;13.07;;
15748;SDS011;7976;52.526;13.326;2023-04-20T12:37:53;25.52;;;13.60;;
15748;SDS011;7976;52.526;13.326;2023-04-20T12:40:20;22.42;;;12.20;;
15748;SDS011;7976;52.526;13.326;2023-04-20T12:42:46;18.92;;;11.52;;
15748;SDS011;7976;52.526;13.326;2023-04-20T12:45:15;24.05;;;11.57;;
15748;SDS011;7976;52.526;13.326;2023-04-20T12:47:41;18.10;;;10.25;;
15748;SDS011;7976;52.526;13.326;2023-04-20T12:50:08;20.65;;;10.57;;
15748;SDS011;7976;52.526;13.326;2023-04-20T12:52:36;22.48;;;11.52;;
15748;SDS011;7976;52.526;13.326;2023-04-20T12:55:03;21.90;;;12.18;;
15748;SDS011;7976;52.526;13.326;2023-04-20T12:57:31;21.40;;;11.15;;
15748;SDS011;7976;52.526;13.326;2023-04-20T12:59:58;26.67;;;14.05;;
15748;SDS011;7976;52.526;13.326;2023-04-20T13:02:27;27.45;;;12.88;;
15748;SDS011;7976;52.526;13.326;2023-04-20T13:04:55;21.60;;;11.85;;
15748;SDS011;7976;52.526;13.326;2023-04-20T13:07:22;20.30;;;11.30;;
15748;SDS011;7976;52.526;13.326;2023-04-20T13:09:51;18.73;;;10.80;;
15748;SDS011;7976;52.526;13.326;2023-04-20T13:12:18;21.08;;;10.82;;
15748;SDS011;7976;52.526;13.326;2023-04-20T13:14:45;23.38;;;11.93;;
15748;SDS011;7976;52.526;13.326;2023-04-20T13:17:12;28.38;;;11.07;;
15748;SDS011;7976;52.526;13.326;2023-04-20T13:19:40;20.55;;;10.63;;
15748;SDS011;7976;52.526;13.326;2023-04-20T13:22:07;21.92;;;10.68;;
15748;SDS011;7976;52.526;13.326;2023-04-20T13:24:34;24.98;;;10.55;;
15748;SDS011;7976;52.526;13.326;2023-04-20T13:27:01;23.15;;;10.05;;
15748;SDS011;7976;52.526;13.326;2023-04-20T13:29:28;20.75;;;10.40;;
15748;SDS011;7976;52.526;13.326;2023-04-20T13:31:55;19.95;;;10.05;;
15748;SDS011;7976;52.526;13.326;2023-04-20T13:34:22;21.52;;;10.57;;
15748;SDS011;7976;52.526;13.326;2023-04-20T13:36:50;18.80;;;10.52;;
15748;SDS011;7976;52.526;13.326;2023-04-20T13:39:17;19.25;;;10.50;;
15748;SDS011;7976;52.526;13.326;2023-04-20T13:41:45;21.55;;;10.52;;
15748;SDS011;7976;52.526;13.326;2023-04-20T13:44:13;18.38;;;10.43;;
15748;SDS011;7976;52.526;13.326;2023-04-20T13:46:40;18.13;;;9.63;;
15748;SDS011;7976;52.526;13.326;2023-04-20T13:49:08;19.20;;;10.65;;
15748;SDS011;7976;52.526;13.326;2023-04-20T13:51:35;19.13;;;10.32;;
15748;SDS011;7976;52.526;13.326;2023-04-20T13:54:03;18.67;;;10.48;;
15748;SDS011;7976;52.526;13.326;2023-04-20T13:56:31;19.73;;;10.55;;
15748;SDS011;7976;52.526;13.326;2023-04-20T13:58:58;20.58;;;10.90;;
15748;SDS011;7976;52.526;13.326;2023-04-20T14:01:27;18.73;;;10.48;;
15748;SDS011;7976;52.526;13.326;2023-04-20T14:03:54;18.63;;;10.02;;
15748;SDS011;7976;52.526;13.326;2023-04-20T14:06:21;18.65;;;9.77;;
15748;SDS011;7976;52.526;13.326;2023-04-20T14:08:48;19.50;;;9.70;;
15748;SDS011;7976;52.526;13.326;2023-04-20T14:11:16;19.63;;;9.48;;
15748;SDS011;7976;52.526;13.326;2023-04-20T14:13:43;20.77;;;9.90;;
15748;SDS011;7976;52.526;13.326;2023-04-20T14:16:11;17.02;;;9.43;;
15748;SDS011;7976;52.526;13.326;2023-04-20T14:18:38;17.58;;;9.90;;
15748;SDS011;7976;52.526;13.326;2023-04-20T14:21:06;20.23;;;9.63;;
15748;SDS011;7976;52.526;13.326;2023-04-20T14:23:33;19.48;;;9.93;;
15748;SDS011;7976;52.526;13.326;2023-04-20T14:26:00;17.17;;;9.75;;
15748;SDS011;7976;52.526;13.326;2023-04-20T14:28:29;17.15;;;9.23;;
15748;SDS011;7976;52.526;13.326;2023-04-20T14:30:56;18.40;;;9.40;;
15748;SDS011;7976;52.526;13.326;2023-04-20T14:33:24;17.38;;;9.30;;
15748;SDS011;7976;52.526;13.326;2023-04-20T14:35:52;18.88;;;9.38;;